Ana Sayfa
METAR-TAF:

METAR-TAF

Havaalanları :

Çengçou, Çin

Enlem: 34-43N, Boylam: 113-39E, yükseklik: 111 m

Güncel hava durumu gözlemi

Rapor saat 12:00 UTC de 54 dakika önce yapıldı.
Rüzgar batı/kuzeybatıdan 6 kt
Sıcaklık 22°C
Nem 88%
Basınç 1008 hPa
Görüş mesafesi 10 km veya daha fazla
4600 ft yükseklikte çok bulutlu

METAR: ZHCC 161200Z 29003MPS 9999 OVC046 22/20 Q1008 NOSIG

Saat: 20:54 (12:54 UTC)

Tahmin

Rapor saat 09:06 UTC de 3 saat ve 48 dakika önce yapıldı.
Ayın 16'si saat 12 UTC'den ayın 17'si saat 12 UTC'ye kadar geçerli Tahmin
Rüzgar batıdan 6 kt
Görüş mesafesi: 5000 m
4000 ft yükseklikte parçalı çok bulutlu
Toz Pusu
Geçici
ayın 16'si saat 20 UTC'den ayın 16'si saat 23 UTC'ye kadar
Görüş mesafesi: 2000 m
Pus,

TAF: ZHCC 160906Z 1612/1712 27003MPS 5000 HZ BKN040 TX33/1707Z TN22/1622Z TEMPO 1620/1623 2000 BR

4.000'den fazla havaalanı için hava durumu gözlemleri ve tahminleri (METAR ve TAF raporları).

Kullanılabilir istasyonlar harita üzerinde sarı ve kırmızı noktalarla gösterilir.

İstasyonun adını görmek için fareyi noktanın üzerinde gezdirin.

Sonrasında hava gözlem ve tahminlerini görmek için tıklayın.

Haritayı değiştirmek için: yaklaştırmak için siyah artı işaretli yeşil düğmeye ve uzaklaştırmak için de eksi işaretli düğmeye hızla tıklayın; bitişik haritalar için yeşil okları kullanın.


METAR-TAF: